Bookmark and Share
Track history (hours):
 

Statia Express

Last reported at 2014-Apr-23 06:28 UTC. Time now 2014-Apr-23 19:14 UTC.
Position N 17°43' W 063°05'.

Length 28 m; draft 4.1 m.

Type: Tug. MMSI: 538003879.

NotesDate/timePositionNaut miles runAvg speedWind from/ knotsBaromVisibWave heightAir tempDewpointWater temp
2014-Apr-23 06:28N 17°43' W 063°05'7 6.2
2014-Apr-23 05:18N 17°50' W 063°07'5 6.3
2014-Apr-23 04:33N 17°55' W 063°07'6 4.0
2014-Apr-23 03:04N 17°60' W 063°04'1 1.5
2014-Apr-23 02:11N 18°01' W 063°03'1 0.5
2014-Apr-23 01:07N 18°01' W 063°03'0 0.0
2014-Apr-23 00:09N 18°01' W 063°03'1 0.0
2014-Apr-22 07:17N 18°01' W 063°03'1 0.1
2014-Apr-22 00:11N 18°01' W 063°03'0 0.0
2014-Apr-21 03:15N 18°01' W 063°03'0 0.0
2014-Apr-21 02:15N 18°01' W 063°03'0 0.0
2014-Apr-21 01:29N 18°01' W 063°03'0 0.0
2014-Apr-21 00:33N 18°01' W 063°03'0 0.0
2014-Apr-20 23:09N 18°01' W 063°03'0 0.1
2014-Apr-20 21:19N 18°00' W 063°03'0 0.0
2014-Apr-20 20:10N 18°00' W 063°03'0 0.0
2014-Apr-20 19:11N 18°00' W 063°03'0 0.0
2014-Apr-20 15:24N 18°00' W 063°03'0 0.1
2014-Apr-20 13:12N 18°00' W 063°03'0 0.0
2014-Apr-20 12:32N 18°00' W 063°03'0 0.0
2014-Apr-20 11:32N 18°00' W 063°03'0 0.0
2014-Apr-20 06:13N 18°00' W 063°03'0 0.0
2014-Apr-20 05:20N 18°00' W 063°03'0 0.0
2014-Apr-20 04:06N 18°00' W 063°03'0 0.0
2014-Apr-19 17:17N 18°01' W 063°03'0 0.0
2014-Apr-19 12:04N 18°01' W 063°03'2 1.0
2014-Apr-19 10:18N 18°01' W 063°05'2 0.6
2014-Apr-19 07:09N 18°01' W 063°03'0 0.0
2014-Apr-19 04:19N 18°01' W 063°03'0 0.1
2014-Apr-18 22:06N 18°01' W 063°04'0 0.0
2014-Apr-18 11:34N 18°01' W 063°03'0 0.0
2014-Apr-18 10:19N 18°01' W 063°03'1 0.4
2014-Apr-18 07:22N 18°01' W 063°04'2 2.2
2014-Apr-18 06:30N 17°59' W 063°05'6 5.4
2014-Apr-18 05:24N 17°54' W 063°03'4 5.2
2014-Apr-18 04:33N 17°49' W 063°03'8 0.3
2014-Apr-17 02:32N 17°42' W 063°05'7 6.0
2014-Apr-17 01:24N 17°48' W 063°06'6 6.2
2014-Apr-17 00:25N 17°55' W 063°07'5 4.9
2014-Apr-16 23:19N 17°60' W 063°05'2 1.6
2014-Apr-16 22:12N 18°01' W 063°03'0 0.1
2014-Apr-16 16:12N 18°01' W 063°03'0 0.2
2014-Apr-16 14:13N 18°01' W 063°03'0 0.3
2014-Apr-16 13:20N 18°01' W 063°03'0 0.2
2014-Apr-16 11:33N 18°01' W 063°03'1 0.0
2014-Apr-15 21:32N 18°01' W 063°03'  

Dump ship's entire track history

sailing weather and tide predictions

Statia Express — V7TT3 — position and weather